Time;durP1;ratioP1;P1;durP2;ratioP2;P2;SDS_P1;SDS_P2;PMS_P1;PMS_P2;Temp;Humidity;BMP_temperature;BMP_pressure;BME280_temperature;BME280_humidity;BME280_pressure;Samples;Min_cycle;Max_cycle;Signal;HPM_P1;HPM_P2
2023/06/01 00:02:13;;;;;;;5.43;2.95;;;;;;;10.85;77.19;97409.56;5037888;28;20094;-64
2023/06/01 00:04:40;;;;;;;6.18;2.83;;;;;;;10.90;76.71;97407.75;5023339;28;20503;-64
2023/06/01 00:07:08;;;;;;;5.28;2.80;;;;;;;10.87;76.82;97408.25;5022912;28;20052;-64
2023/06/01 00:09:34;;;;;;;6.47;3.10;;;;;;;10.80;77.14;97407.66;5028440;28;20099;-64
2023/06/01 00:12:02;;;;;;;7.20;3.10;;;;;;;10.77;77.84;97405.44;5027396;28;20149;-63
2023/06/01 00:14:29;;;;;;;9.43;3.30;;;;;;;10.89;77.10;97402.59;5025436;28;20056;-64
2023/06/01 00:16:58;;;;;;;6.68;3.95;;;;;;;10.86;77.54;97403.91;5027611;28;20049;-64
2023/06/01 00:19:26;;;;;;;8.55;3.53;;;;;;;10.78;77.47;97401.66;5029346;28;20297;-64
2023/06/01 00:21:53;;;;;;;6.35;2.80;;;;;;;10.76;77.39;97404.59;5029744;28;20103;-64
2023/06/01 00:24:21;;;;;;;6.53;3.10;;;;;;;10.66;78.26;97402.59;5033651;28;20108;-64
2023/06/01 00:26:48;;;;;;;7.73;3.20;;;;;;;10.69;78.39;97398.53;5028525;28;20068;-64
2023/06/01 00:29:15;;;;;;;6.00;2.85;;;;;;;10.65;78.67;97409.06;5024562;28;20043;-64
2023/06/01 00:31:42;;;;;;;6.47;2.97;;;;;;;10.61;78.99;97396.31;5024349;28;20064;-64
2023/06/01 00:34:09;;;;;;;6.03;3.20;;;;;;;10.63;79.11;97407.69;5026112;28;20041;-64
2023/06/01 00:36:35;;;;;;;6.05;2.95;;;;;;;10.50;79.10;97401.56;5026558;28;20049;-64
2023/06/01 00:39:03;;;;;;;5.80;3.00;;;;;;;10.60;78.83;97405.47;5020996;28;20065;-64
2023/06/01 00:41:32;;;;;;;5.18;3.10;;;;;;;10.63;78.46;97405.81;5027661;28;20045;-64
2023/06/01 00:43:58;;;;;;;5.07;3.17;;;;;;;10.63;78.82;97399.56;5022627;28;20672;-64
2023/06/01 00:46:26;;;;;;;5.97;3.13;;;;;;;10.48;79.35;97405.59;5028609;28;20502;-64
2023/06/01 00:48:53;;;;;;;6.70;3.60;;;;;;;10.41;79.82;97401.16;5021611;28;20517;-63
2023/06/01 00:51:20;;;;;;;8.15;3.28;;;;;;;10.56;79.31;97405.16;5021351;28;20148;-63
2023/06/01 00:53:48;;;;;;;5.68;2.45;;;;;;;10.53;79.60;97403.78;5023607;28;20430;-63
2023/06/01 00:56:14;;;;;;;6.63;3.15;;;;;;;10.50;79.67;97398.03;5018217;28;20516;-63
2023/06/01 00:58:41;;;;;;;6.70;2.80;;;;;;;10.46;79.81;97400.44;5023235;28;20041;-63
2023/06/01 01:01:08;;;;;;;6.45;2.25;;;;;;;10.17;81.47;97397.84;5022782;28;20051;-63
2023/06/01 01:03:38;;;;;;;6.32;2.63;;;;;;;10.11;81.95;97396.97;5024850;28;20421;-64
2023/06/01 01:06:11;;;;;;;5.47;2.70;;;;;;;10.09;82.76;97390.16;5020223;28;20423;-63
2023/06/01 01:08:57;;;;;;;6.10;2.45;;;;;;;10.16;81.91;97393.50;5023753;28;20069;-63
2023/06/01 01:11:28;;;;;;;4.20;2.50;;;;;;;10.23;81.69;97386.03;5010661;28;20399;-63
2023/06/01 01:14:25;;;;;;;6.15;2.47;;;;;;;10.22;81.60;97389.81;5018884;28;20034;-63
2023/06/01 01:17:24;;;;;;;5.93;2.60;;;;;;;10.24;81.72;97386.84;5016508;28;20528;-63
2023/06/01 01:20:15;;;;;;;7.10;2.40;;;;;;;10.19;82.08;97384.06;5016156;28;20064;-63
2023/06/01 01:22:56;;;;;;;4.65;2.38;;;;;;;10.28;81.09;97388.81;5020621;28;20045;-63
2023/06/01 01:25:52;;;;;;;7.85;2.72;;;;;;;10.36;80.85;97384.03;5018955;28;20117;-63
2023/06/01 01:28:41;;;;;;;7.45;2.78;;;;;;;10.30;81.28;97385.84;5016638;28;20042;-64
2023/06/01 01:31:11;;;;;;;5.57;2.53;;;;;;;10.33;81.02;97384.53;5012166;28;20038;-63
2023/06/01 01:33:39;;;;;;;6.68;2.35;;;;;;;10.22;81.62;97389.81;5011781;28;20065;-63
2023/06/01 01:36:08;;;;;;;4.95;2.38;;;;;;;10.20;82.17;97389.22;5013695;28;20045;-63
2023/06/01 01:38:35;;;;;;;6.43;2.90;;;;;;;10.17;82.49;97380.81;5020242;28;20513;-63
2023/06/01 01:41:03;;;;;;;6.63;2.60;;;;;;;10.19;81.96;97382.19;5018086;28;20054;-63
2023/06/01 01:43:30;;;;;;;5.32;2.72;;;;;;;10.22;82.17;97383.56;5011311;28;20030;-63
2023/06/01 01:46:05;;;;;;;4.60;2.65;;;;;;;10.23;81.88;97377.91;5019395;28;20112;-63
2023/06/01 01:48:37;;;;;;;5.72;2.15;;;;;;;10.17;82.41;97381.59;5006822;28;20038;-63
2023/06/01 01:51:32;;;;;;;5.97;2.95;;;;;;;10.24;81.92;97379.53;5016480;28;20589;-63
2023/06/01 01:54:00;;;;;;;6.00;3.03;;;;;;;10.23;82.02;97382.50;5024390;28;20057;-63
2023/06/01 01:56:27;;;;;;;9.55;3.72;;;;;;;10.31;81.81;97379.38;5022617;28;20052;-63
2023/06/01 01:58:55;;;;;;;5.32;3.20;;;;;;;10.39;81.15;97373.53;5017314;28;20037;-63
2023/06/01 02:01:23;;;;;;;5.10;2.95;;;;;;;10.51;80.20;97376.13;5024141;28;20038;-63
2023/06/01 02:04:04;;;;;;;8.00;4.22;;;;;;;10.34;81.51;97375.34;5040360;28;20045;-63
2023/06/01 02:06:32;;;;;;;6.97;2.85;;;;;;;10.38;81.47;97377.31;5021990;28;20045;-63
2023/06/01 02:08:59;;;;;;;5.90;3.00;;;;;;;10.33;81.49;97374.53;5023023;28;20527;-63
2023/06/01 02:11:26;;;;;;;8.32;3.05;;;;;;;10.22;82.58;97378.16;5024233;28;20041;-63
2023/06/01 02:13:52;;;;;;;7.32;2.85;;;;;;;10.19;82.52;97371.38;5016447;28;20532;-63
2023/06/01 02:16:19;;;;;;;7.65;3.45;;;;;;;10.19;82.62;97367.81;5014067;28;20432;-63
2023/06/01 02:18:45;;;;;;;7.05;3.35;;;;;;;10.24;82.10;97370.59;5017001;28;20121;-63
2023/06/01 02:21:13;;;;;;;7.00;2.85;;;;;;;10.11;83.06;97367.22;5015863;28;20129;-63
2023/06/01 02:23:40;;;;;;;7.70;3.47;;;;;;;9.95;83.90;97363.44;5011363;28;20042;-63
2023/06/01 02:26:07;;;;;;;8.32;3.20;;;;;;;9.93;84.18;97368.28;5047641;28;20049;-63
2023/06/01 02:28:37;;;;;;;6.25;3.25;;;;;;;9.99;83.65;97363.78;5017832;28;20050;-63
2023/06/01 02:31:05;;;;;;;10.63;4.00;;;;;;;9.87;84.86;97356.56;5022939;28;20061;-64
2023/06/01 02:33:32;;;;;;;6.47;3.97;;;;;;;9.97;84.15;97363.19;5017962;28;20049;-63
2023/06/01 02:35:59;;;;;;;6.38;3.60;;;;;;;9.93;84.62;97365.59;5018329;28;20037;-63
2023/06/01 02:38:26;;;;;;;8.10;3.08;;;;;;;9.98;84.12;97365.66;5023041;28;20041;-63
2023/06/01 02:40:53;;;;;;;6.80;3.42;;;;;;;10.11;83.39;97369.91;5022186;28;20053;-63
2023/06/01 02:43:20;;;;;;;6.90;3.30;;;;;;;10.00;84.09;97371.63;5025280;28;20065;-63
2023/06/01 02:45:46;;;;;;;5.82;3.30;;;;;;;9.91;84.04;97369.63;5021715;28;20053;-63
2023/06/01 02:48:14;;;;;;;7.40;3.40;;;;;;;10.01;83.45;97369.75;5022548;28;20099;-64
2023/06/01 02:50:41;;;;;;;7.38;2.85;;;;;;;10.03;83.28;97367.63;5022852;28;20081;-63
2023/06/01 02:53:08;;;;;;;7.25;3.17;;;;;;;9.89;84.34;97369.84;5022942;28;20034;-63
2023/06/01 02:55:34;;;;;;;7.10;3.30;;;;;;;9.84;84.29;97373.28;5022614;28;20474;-63
2023/06/01 02:58:20;;;;;;;8.20;3.92;;;;;;;9.87;84.47;97370.09;5019614;28;20535;-63
2023/06/01 03:01:02;;;;;;;9.23;3.55;;;;;;;9.86;84.25;97373.03;5021923;28;20045;-63
2023/06/01 03:03:29;;;;;;;5.75;3.30;;;;;;;9.86;84.12;97365.75;5021697;28;20033;-62
2023/06/01 03:05:56;;;;;;;7.50;3.53;;;;;;;9.84;84.29;97365.19;5025485;28;20037;-63
2023/06/01 03:08:46;;;;;;;9.13;4.13;;;;;;;9.74;85.46;97368.53;5026175;28;20440;-63
2023/06/01 03:11:32;;;;;;;8.85;3.88;;;;;;;9.83;84.80;97371.66;5018028;28;20663;-63
2023/06/01 03:13:59;;;;;;;6.82;4.10;;;;;;;9.72;85.29;97367.16;5015517;28;20048;-63
2023/06/01 03:16:26;;;;;;;11.60;5.07;;;;;;;9.74;85.16;97362.31;5023979;28;20088;-63
2023/06/01 03:19:05;;;;;;;9.90;4.80;;;;;;;9.70;84.98;97361.19;5015744;28;20099;-64
2023/06/01 03:21:32;;;;;;;8.50;4.55;;;;;;;9.78;84.51;97363.47;5016494;28;20516;-63
2023/06/01 03:23:59;;;;;;;9.77;3.95;;;;;;;9.53;86.36;97367.41;5021313;28;20065;-63
2023/06/01 03:26:25;;;;;;;9.30;4.68;;;;;;;9.32;88.31;97367.06;5019280;28;20740;-63
2023/06/01 03:28:52;;;;;;;9.18;4.25;;;;;;;8.98;90.38;97367.00;5021752;28;20121;-63
2023/06/01 03:31:18;;;;;;;11.85;5.80;;;;;;;9.05;90.20;97369.53;5022931;28;20037;-63
2023/06/01 03:33:46;;;;;;;8.60;4.10;;;;;;;9.13;89.64;97373.75;5017492;28;20045;-63
2023/06/01 03:36:12;;;;;;;11.25;4.47;;;;;;;9.21;89.13;97373.34;5019526;28;20083;-63
2023/06/01 03:38:39;;;;;;;9.00;3.83;;;;;;;9.33;88.79;97376.00;5020225;28;20053;-64
2023/06/01 03:41:05;;;;;;;7.90;3.75;;;;;;;9.14;89.34;97375.38;5017387;28;20056;-63
2023/06/01 03:43:33;;;;;;;6.78;2.88;;;;;;;9.09;90.06;97376.09;5021314;28;20107;-63
2023/06/01 03:45:59;;;;;;;7.82;3.55;;;;;;;9.14;89.92;97375.38;5019671;28;20051;-63
2023/06/01 03:48:26;;;;;;;5.93;3.33;;;;;;;9.13;89.55;97373.75;5020421;28;20132;-63
2023/06/01 03:50:53;;;;;;;5.68;2.80;;;;;;;9.10;90.46;97383.13;5017297;28;20172;-63
2023/06/01 03:53:20;;;;;;;10.57;2.65;;;;;;;9.10;90.34;97377.75;5021718;28;20224;-63
2023/06/01 03:55:48;;;;;;;5.75;2.88;;;;;;;9.15;89.74;97375.16;5029612;28;20053;-65
2023/06/01 03:58:35;;;;;;;4.95;2.60;;;;;;;8.88;91.57;97378.41;5021557;28;20084;-63
2023/06/01 04:01:03;;;;;;;5.80;2.63;;;;;;;8.87;92.17;97384.06;5013273;28;20092;-63
2023/06/01 04:03:30;;;;;;;7.25;2.47;;;;;;;8.91;91.82;97374.41;5018990;28;20175;-63
2023/06/01 04:05:59;;;;;;;6.60;2.60;;;;;;;8.94;91.78;97382.88;5035314;28;20052;-63
2023/06/01 04:08:26;;;;;;;6.93;2.35;;;;;;;8.86;93.15;97377.84;5018424;28;20041;-63
2023/06/01 04:10:53;;;;;;;8.18;2.70;;;;;;;8.94;92.13;97379.34;5018956;28;20045;-63
2023/06/01 04:13:19;;;;;;;8.80;3.20;;;;;;;9.07;91.71;97379.03;5020645;28;20120;-63
2023/06/01 04:15:46;;;;;;;5.70;2.67;;;;;;;9.11;91.63;97384.81;5019145;28;20069;-63
2023/06/01 04:18:16;;;;;;;6.95;2.92;;;;;;;9.24;90.92;97389.91;5015956;28;20069;-63
2023/06/01 04:21:02;;;;;;;6.78;2.60;;;;;;;9.21;90.60;97384.16;5018374;28;20052;-63
2023/06/01 04:23:29;;;;;;;5.30;2.50;;;;;;;9.21;91.09;97384.97;5022025;28;20128;-63
2023/06/01 04:25:59;;;;;;;8.55;3.13;;;;;;;9.31;91.42;97384.34;5025083;28;20041;-64
2023/06/01 04:28:28;;;;;;;8.10;3.65;;;;;;;9.49;90.79;97393.28;5021809;28;20064;-64
2023/06/01 04:30:55;;;;;;;5.00;2.78;;;;;;;9.56;90.25;97393.97;5019506;28;20056;-64
2023/06/01 04:33:24;;;;;;;7.18;3.00;;;;;;;9.75;89.18;97402.66;5021171;28;20045;-64
2023/06/01 04:35:54;;;;;;;5.20;2.85;;;;;;;9.82;88.76;97401.66;5019990;28;20640;-64
2023/06/01 04:38:25;;;;;;;8.75;2.88;;;;;;;9.85;89.18;97403.88;5022370;28;20658;-65
2023/06/01 04:40:53;;;;;;;9.25;2.75;;;;;;;9.91;90.89;97388.53;5018779;28;20471;-64
2023/06/01 04:43:20;;;;;;;6.97;2.95;;;;;;;10.02;89.44;97401.13;5018762;28;20057;-64
2023/06/01 04:45:47;;;;;;;4.97;2.67;;;;;;;10.21;89.26;97401.69;5020224;28;20109;-64
2023/06/01 04:48:16;;;;;;;6.20;2.50;;;;;;;10.38;88.12;97398.97;5031858;28;20605;-64
2023/06/01 04:50:55;;;;;;;5.17;2.60;;;;;;;10.55;87.97;97392.72;5015534;28;20058;-64
2023/06/01 04:53:21;;;;;;;5.80;2.97;;;;;;;10.65;88.17;97390.13;5026418;28;20072;-65
2023/06/01 04:55:48;;;;;;;6.10;3.15;;;;;;;10.75;88.05;97394.84;5019064;28;20048;-64
2023/06/01 04:58:15;;;;;;;5.72;2.80;;;;;;;10.87;88.74;97396.63;5019802;28;20033;-65
2023/06/01 05:00:43;;;;;;;5.82;2.63;;;;;;;10.96;88.06;97395.09;5017687;28;20053;-64
2023/06/01 05:03:09;;;;;;;5.90;2.60;;;;;;;11.10;88.03;97402.81;5020082;28;20041;-64
2023/06/01 05:05:36;;;;;;;6.65;2.70;;;;;;;11.22;88.00;97395.34;5019235;28;20046;-64
2023/06/01 05:08:05;;;;;;;11.98;3.40;;;;;;;11.40;86.91;97401.50;5011563;28;20037;-64
2023/06/01 05:10:32;;;;;;;5.68;2.58;;;;;;;11.54;86.98;97397.28;5018578;28;20825;-64
2023/06/01 05:12:59;;;;;;;5.38;2.72;;;;;;;11.55;88.86;97398.94;5017783;28;20053;-64
2023/06/01 05:15:27;;;;;;;5.65;2.80;;;;;;;11.64;89.48;97403.88;5019757;28;20029;-64
2023/06/01 05:17:55;;;;;;;5.30;2.22;;;;;;;11.84;88.07;97406.75;5017540;28;20123;-64
2023/06/01 05:20:22;;;;;;;6.20;2.47;;;;;;;12.03;85.25;97408.25;5022038;28;20041;-64
2023/06/01 05:22:55;;;;;;;8.60;3.20;;;;;;;12.25;83.72;97404.59;5021096;28;20488;-64
2023/06/01 05:25:22;;;;;;;7.22;2.60;;;;;;;12.38;84.40;97408.78;5022034;28;20125;-64
2023/06/01 05:27:48;;;;;;;8.23;2.45;;;;;;;12.48;84.44;97404.22;5025555;28;20413;-64
2023/06/01 05:30:15;;;;;;;6.13;2.13;;;;;;;12.66;83.10;97410.28;5027204;28;20048;-64
2023/06/01 05:32:43;;;;;;;7.40;2.47;;;;;;;12.84;81.08;97414.44;5020925;28;20051;-65
2023/06/01 05:35:14;;;;;;;7.57;2.67;;;;;;;12.96;83.66;97408.75;5041233;28;20033;-64
2023/06/01 05:37:40;;;;;;;6.07;2.50;;;;;;;13.04;82.44;97403.91;5025608;28;20054;-64
2023/06/01 05:40:09;;;;;;;3.17;1.70;;;;;;;13.16;80.81;97404.44;5023593;28;20041;-65
2023/06/01 05:42:37;;;;;;;7.05;2.13;;;;;;;13.30;80.52;97410.19;5028038;28;20056;-64
2023/06/01 05:45:05;;;;;;;4.65;2.00;;;;;;;13.43;79.20;97405.31;5023615;28;20084;-65
2023/06/01 05:47:31;;;;;;;4.78;2.13;;;;;;;13.63;75.37;97412.72;5024579;28;20041;-65
2023/06/01 05:49:58;;;;;;;5.25;1.92;;;;;;;13.87;71.90;97406.75;5024801;28;20111;-64
2023/06/01 05:52:25;;;;;;;5.18;2.15;;;;;;;14.01;71.33;97407.81;5027750;28;20128;-64
2023/06/01 05:54:53;;;;;;;11.35;2.55;;;;;;;14.17;69.80;97411.34;5023796;28;20037;-65
2023/06/01 05:57:20;;;;;;;4.47;1.90;;;;;;;14.29;69.40;97410.22;5022127;28;20049;-65
2023/06/01 05:59:47;;;;;;;6.63;2.70;;;;;;;14.48;69.58;97407.75;5022654;28;20550;-65
2023/06/01 06:02:14;;;;;;;8.60;3.25;;;;;;;14.68;68.74;97408.78;5021505;28;20619;-65
2023/06/01 06:04:41;;;;;;;3.88;2.10;;;;;;;14.83;67.44;97411.47;5021328;28;20068;-64
2023/06/01 06:07:07;;;;;;;5.75;2.25;;;;;;;14.92;67.37;97414.44;5019764;28;20073;-65
2023/06/01 06:09:34;;;;;;;4.20;2.00;;;;;;;15.07;67.50;97408.09;5026703;28;20164;-65
2023/06/01 06:12:01;;;;;;;5.95;2.38;;;;;;;15.13;65.07;97410.78;5019972;28;20667;-65
2023/06/01 06:14:28;;;;;;;7.25;2.42;;;;;;;15.22;65.19;97411.81;5020456;28;20127;-65
2023/06/01 06:16:55;;;;;;;6.63;2.22;;;;;;;15.36;63.31;97416.69;5024925;28;20049;-65
2023/06/01 06:19:21;;;;;;;5.95;2.35;;;;;;;15.42;63.36;97410.06;5024548;28;20045;-65
2023/06/01 06:21:48;;;;;;;5.00;1.90;;;;;;;15.50;62.87;97416.84;5022935;28;20111;-65
2023/06/01 06:24:14;;;;;;;8.52;2.20;;;;;;;15.59;62.80;97412.44;5022691;28;20106;-65
2023/06/01 06:26:41;;;;;;;5.03;2.00;;;;;;;15.64;62.94;97415.13;5025122;28;20042;-64
2023/06/01 06:29:08;;;;;;;6.03;1.95;;;;;;;15.66;62.32;97418.38;5021481;28;20048;-66
2023/06/01 06:31:34;;;;;;;4.97;1.98;;;;;;;15.72;61.81;97422.72;5018700;28;20050;-65
2023/06/01 06:34:01;;;;;;;9.70;2.20;;;;;;;15.86;60.66;97416.59;5021022;28;20056;-65
2023/06/01 06:36:27;;;;;;;6.30;2.05;;;;;;;15.96;61.14;97407.53;5021692;28;20120;-63
2023/06/01 06:38:54;;;;;;;6.70;2.65;;;;;;;16.23;59.59;97412.47;5017808;28;20077;-49
2023/06/01 06:41:21;;;;;;;5.65;2.28;;;;;;;16.50;59.88;97411.09;5022262;28;20041;-43
2023/06/01 06:43:47;;;;;;;6.10;2.05;;;;;;;16.60;58.64;97417.56;5021628;28;20050;-46
2023/06/01 06:46:14;;;;;;;8.82;2.28;;;;;;;16.76;59.21;97421.75;5021111;28;20659;-45
2023/06/01 06:48:40;;;;;;;6.03;2.30;;;;;;;16.85;58.37;97421.09;5027850;28;20052;-46
2023/06/01 06:51:07;;;;;;;5.75;2.25;;;;;;;16.99;57.82;97408.34;5020116;28;20041;-47
2023/06/01 06:53:33;;;;;;;4.82;2.28;;;;;;;17.01;58.36;97417.06;5021557;28;20643;-48
2023/06/01 06:56:00;;;;;;;6.25;2.65;;;;;;;17.03;57.63;97419.53;5024336;28;20038;-47
2023/06/01 06:58:27;;;;;;;8.48;2.25;;;;;;;17.19;57.17;97419.34;5021317;28;20052;-43
2023/06/01 07:00:53;;;;;;;3.95;1.98;;;;;;;17.21;55.98;97419.88;5017265;28;20053;-52
2023/06/01 07:03:20;;;;;;;4.13;1.85;;;;;;;17.26;55.46;97417.88;5021539;28;20064;-45
2023/06/01 07:05:47;;;;;;;5.93;2.17;;;;;;;17.29;54.66;97419.22;5012395;28;20053;-45
2023/06/01 07:08:15;;;;;;;7.47;2.10;;;;;;;17.41;54.38;97421.50;5021867;28;20135;-47
2023/06/01 07:10:41;;;;;;;6.07;2.20;;;;;;;17.46;53.09;97424.16;5024755;28;20045;-48
2023/06/01 07:13:08;;;;;;;4.20;2.03;;;;;;;17.52;53.56;97428.47;5021419;28;20119;-47
2023/06/01 07:15:35;;;;;;;5.25;2.17;;;;;;;17.61;53.01;97425.84;5022741;28;20299;-44
2023/06/01 07:18:01;;;;;;;5.13;2.08;;;;;;;17.54;52.04;97428.13;5019863;28;20041;-43
2023/06/01 07:20:28;;;;;;;6.78;2.53;;;;;;;17.55;51.90;97422.38;5018433;28;20068;-46
2023/06/01 07:22:54;;;;;;;6.18;2.22;;;;;;;17.54;51.73;97423.50;5017294;28;20159;-44
2023/06/01 07:25:21;;;;;;;6.32;2.50;;;;;;;17.66;52.33;97422.25;5017153;28;20111;-47
2023/06/01 07:27:48;;;;;;;7.50;2.33;;;;;;;17.73;53.60;97419.91;5022075;28;20045;-44
2023/06/01 07:30:14;;;;;;;5.80;2.10;;;;;;;17.91;52.71;97420.22;5020240;28;21007;-47
2023/06/01 07:32:42;;;;;;;6.03;2.65;;;;;;;17.92;52.69;97421.84;5023026;28;20045;-44
2023/06/01 07:35:10;;;;;;;8.00;2.55;;;;;;;18.03;52.72;97417.78;5020919;28;20042;-45
2023/06/01 07:37:36;;;;;;;5.97;2.83;;;;;;;18.13;51.45;97418.78;5022489;28;20049;-44
2023/06/01 07:40:06;;;;;;;6.28;2.65;;;;;;;18.11;50.73;97421.00;5022947;28;20045;-44
2023/06/01 07:42:34;;;;;;;4.65;2.50;;;;;;;18.18;50.54;97424.16;5026029;28;20045;-46
2023/06/01 07:45:02;;;;;;;7.35;2.70;;;;;;;18.13;50.51;97424.25;5018296;28;20643;-46
2023/06/01 07:47:29;;;;;;;5.50;2.50;;;;;;;18.15;50.83;97424.75;5023650;28;20125;-47
2023/06/01 07:49:56;;;;;;;6.38;2.20;;;;;;;18.19;50.99;97423.88;5021396;28;20111;-44
2023/06/01 07:52:23;;;;;;;6.85;2.35;;;;;;;18.44;51.45;97426.44;5025557;28;20049;-45
2023/06/01 07:54:49;;;;;;;9.45;2.88;;;;;;;18.60;50.58;97424.22;5022360;28;20045;-47
2023/06/01 07:57:16;;;;;;;8.18;2.80;;;;;;;18.68;49.63;97425.44;5023614;28;20111;-48
2023/06/01 07:59:43;;;;;;;5.82;2.78;;;;;;;18.69;49.75;97429.81;5019038;28;20539;-48
2023/06/01 08:02:10;;;;;;;6.93;3.28;;;;;;;18.68;49.36;97419.94;5016338;28;20385;-47
2023/06/01 08:04:38;;;;;;;5.43;2.72;;;;;;;18.67;50.20;97418.34;5016041;28;20037;-45
2023/06/01 08:07:07;;;;;;;6.75;2.60;;;;;;;18.93;50.98;97423.31;5019126;28;20045;-44
2023/06/01 08:09:37;;;;;;;8.00;3.97;;;;;;;18.86;50.32;97426.47;5019737;28;20045;-46
2023/06/01 08:12:05;;;;;;;6.90;2.67;;;;;;;18.68;50.42;97419.94;5017629;28;20038;-45
2023/06/01 08:14:33;;;;;;;5.50;2.70;;;;;;;18.72;51.83;97423.72;5019017;28;20125;-47
2023/06/01 08:17:05;;;;;;;6.90;2.83;;;;;;;18.98;52.92;97417.72;5020947;28;20041;-46
2023/06/01 08:19:33;;;;;;;6.53;2.85;;;;;;;19.29;50.74;97419.03;5019348;28;20148;-43
2023/06/01 08:21:59;;;;;;;8.35;2.90;;;;;;;19.47;52.10;97429.03;5017504;28;20139;-44
2023/06/01 08:24:26;;;;;;;5.15;2.72;;;;;;;19.61;50.71;97418.00;5015230;28;20037;-45
2023/06/01 08:26:56;;;;;;;5.90;2.63;;;;;;;19.69;49.35;97418.41;5017198;28;20055;-46
2023/06/01 08:29:22;;;;;;;6.10;3.00;;;;;;;19.65;49.60;97407.25;5017544;28;20049;-45
2023/06/01 08:32:07;;;;;;;6.63;2.97;;;;;;;19.77;50.15;97406.69;5008993;28;20431;-49
2023/06/01 08:34:33;;;;;;;5.95;3.13;;;;;;;19.94;50.39;97405.19;5015816;28;20046;-47
2023/06/01 08:37:00;;;;;;;10.65;2.67;;;;;;;19.97;48.94;97401.81;5017642;28;20572;-43
2023/06/01 08:39:27;;;;;;;7.47;3.47;;;;;;;19.94;49.22;97394.19;5015934;28;20508;-46
2023/06/01 08:41:54;;;;;;;6.80;3.35;;;;;;;19.91;48.68;97403.03;5013184;28;20829;-46
2023/06/01 08:44:26;;;;;;;7.38;2.78;;;;;;;19.89;49.51;97403.34;5019527;28;20053;-44
2023/06/01 08:46:54;;;;;;;6.65;3.03;;;;;;;19.78;49.42;97394.56;5018072;28;20045;-43
2023/06/01 08:49:21;;;;;;;5.72;3.15;;;;;;;20.00;49.67;97388.28;5013280;28;20055;-48
2023/06/01 08:51:53;;;;;;;6.10;3.08;;;;;;;20.17;48.73;97394.19;5028272;28;20047;-47
2023/06/01 08:54:19;;;;;;;;;;;;;;;20.25;48.80;97393.41;5021265;28;20063;-46
2023/06/01 08:56:46;;;;;;;6.75;2.80;;;;;;;20.42;49.05;97398.22;5019620;28;19927;-47
2023/06/01 08:59:13;;;;;;;6.00;3.58;;;;;;;20.19;48.81;97395.50;5018359;28;20049;-47
2023/06/01 09:01:41;;;;;;;6.30;3.10;;;;;;;20.33;49.32;97391.84;5010449;28;20059;-45
2023/06/01 09:04:09;;;;;;;7.13;3.25;;;;;;;20.31;48.47;97389.41;5020903;28;20041;-50
2023/06/01 09:06:38;;;;;;;8.68;3.10;;;;;;;20.32;48.67;97393.78;5024994;28;20052;-45
2023/06/01 09:09:10;;;;;;;7.40;3.10;;;;;;;20.33;48.86;97395.41;5010257;28;20045;-44
2023/06/01 09:11:38;;;;;;;6.32;3.63;;;;;;;20.46;48.62;97399.19;5017957;28;20148;-46
2023/06/01 09:14:22;;;;;;;7.38;3.30;;;;;;;20.57;48.61;97396.97;5021042;28;20809;-44
2023/06/01 09:16:49;;;;;;;7.82;3.45;;;;;;;20.80;47.04;97394.94;5011900;28;20480;-47
2023/06/01 09:19:18;;;;;;;10.93;3.65;;;;;;;20.92;47.54;97396.31;5019304;28;20049;-45
2023/06/01 09:21:58;;;;;;;11.60;3.38;;;;;;;21.07;46.78;97395.03;5018099;28;20693;-44
2023/06/01 09:24:26;;;;;;;8.90;3.70;;;;;;;21.20;46.40;97398.78;5019354;28;20113;-45
2023/06/01 09:27:00;;;;;;;6.57;3.33;;;;;;;21.34;46.04;97400.59;5010629;28;20497;-47
2023/06/01 09:29:29;;;;;;;10.57;3.83;;;;;;;21.35;46.30;97399.44;5021289;28;20120;-47
2023/06/01 09:31:56;;;;;;;6.95;3.00;;;;;;;21.29;46.26;97396.84;5017198;28;20136;-46
2023/06/01 09:34:23;;;;;;;5.65;3.17;;;;;;;21.30;46.02;97395.72;5014127;28;20069;-45
2023/06/01 09:36:52;;;;;;;7.30;3.55;;;;;;;21.49;46.43;97386.31;5014694;28;20045;-44
2023/06/01 09:39:20;;;;;;;10.95;4.10;;;;;;;21.49;46.22;97393.78;5016408;28;20041;-47
2023/06/01 09:41:54;;;;;;;6.82;3.67;;;;;;;21.61;45.20;97395.91;5018861;28;20658;-45
2023/06/01 09:44:30;;;;;;;8.65;3.53;;;;;;;21.55;45.01;97398.81;5017072;28;20056;-46
2023/06/01 09:46:58;;;;;;;6.55;3.35;;;;;;;21.51;45.10;97391.50;5016378;28;20037;-49
2023/06/01 09:49:31;;;;;;;6.90;3.72;;;;;;;21.47;45.90;97390.53;5013236;28;20038;-48
2023/06/01 09:52:04;;;;;;;7.20;3.78;;;;;;;21.48;44.58;97390.22;5018684;28;20049;-45
2023/06/01 09:54:36;;;;;;;5.97;3.47;;;;;;;21.40;45.22;97380.81;5018291;28;20120;-48
2023/06/01 09:57:04;;;;;;;9.50;3.97;;;;;;;21.68;45.23;97371.44;5016462;28;20884;-50
2023/06/01 09:59:47;;;;;;;6.57;3.40;;;;;;;21.76;44.53;97375.34;5018661;28;20053;-51
2023/06/01 10:02:16;;;;;;;7.10;3.80;;;;;;;21.81;44.23;97378.72;5013390;28;20662;-46
2023/06/01 10:05:01;;;;;;;8.30;3.55;;;;;;;21.90;43.84;97367.72;5013253;28;20054;-47
2023/06/01 10:07:30;;;;;;;7.78;3.75;;;;;;;21.94;42.97;97368.69;5016787;28;20152;-44
2023/06/01 10:09:59;;;;;;;10.23;3.85;;;;;;;22.22;43.31;97375.72;5013938;28;20053;-46
2023/06/01 10:12:27;;;;;;;8.07;3.92;;;;;;;22.28;43.15;97371.66;5019377;28;20045;-44
2023/06/01 10:14:55;;;;;;;7.35;3.70;;;;;;;22.33;42.39;97367.88;5017123;28;20332;-45
2023/06/01 10:17:22;;;;;;;7.35;3.88;;;;;;;22.27;42.20;97366.47;5022253;28;20041;-44
2023/06/01 10:19:49;;;;;;;7.88;3.80;;;;;;;22.26;41.53;97373.91;5018277;28;20045;-47
2023/06/01 10:22:16;;;;;;;10.52;3.67;;;;;;;22.35;42.65;97366.44;5016616;28;20103;-48
2023/06/01 10:24:43;;;;;;;9.77;3.35;;;;;;;22.32;42.34;97366.28;5023430;28;20045;-48
2023/06/01 10:27:26;;;;;;;6.65;3.65;;;;;;;22.35;42.27;97354.59;5021470;28;20117;-49
2023/06/01 10:29:53;;;;;;;9.48;3.85;;;;;;;22.40;41.68;97354.41;5017396;28;20107;-64
2023/06/01 10:32:57;;;;;;;8.88;3.53;;;;;;;22.52;41.06;97358.44;5022365;28;20064;-63
2023/06/01 10:35:26;;;;;;;6.80;3.67;;;;;;;22.67;41.29;97348.81;5022475;28;20049;-63
2023/06/01 10:38:19;;;;;;;6.03;3.60;;;;;;;22.72;41.05;97349.44;5022151;28;20064;-63
2023/06/01 10:40:46;;;;;;;6.65;3.22;;;;;;;22.86;41.33;97348.38;5012086;28;20064;-64
2023/06/01 10:43:40;;;;;;;9.55;3.70;;;;;;;22.93;38.76;97356.13;5018546;28;20041;-63
2023/06/01 10:46:25;;;;;;;;;;;;;;;22.88;39.48;97348.84;5011659;28;20053;-62
2023/06/01 10:48:54;;;;;;;7.60;3.47;;;;;;;22.98;38.58;97348.47;5018827;28;19979;-63
2023/06/01 10:51:24;;;;;;;7.40;3.42;;;;;;;22.99;38.83;97343.72;5018073;28;20049;-64
2023/06/01 10:53:52;;;;;;;6.97;3.45;;;;;;;22.98;37.27;97345.72;5017601;28;20060;-63
2023/06/01 10:56:28;;;;;;;7.57;3.15;;;;;;;22.95;37.32;97340.03;5014012;28;20647;-63
2023/06/01 10:59:07;;;;;;;8.70;3.50;;;;;;;22.92;38.06;97335.19;5016574;28;20051;-64
2023/06/01 11:01:44;;;;;;;7.45;4.00;;;;;;;23.11;38.33;97338.28;5027016;28;20064;-62
2023/06/01 11:04:13;;;;;;;8.80;3.83;;;;;;;23.25;36.98;97329.75;5020814;28;20045;-63
2023/06/01 11:06:42;;;;;;;8.43;3.80;;;;;;;23.42;36.30;97338.25;5016700;28;20037;-63
2023/06/01 11:09:10;;;;;;;8.85;3.40;;;;;;;23.44;35.67;97335.97;5021475;28;20052;-63
2023/06/01 11:11:50;;;;;;;6.43;3.35;;;;;;;23.39;36.10;97336.97;5021579;28;20038;-63
2023/06/01 11:14:19;;;;;;;6.82;3.45;;;;;;;23.41;36.31;97328.34;5016525;28;20420;-62
2023/06/01 11:16:47;;;;;;;6.60;3.60;;;;;;;23.55;36.68;97334.38;5017525;28;20071;-63
2023/06/01 11:19:20;;;;;;;7.35;3.70;;;;;;;23.62;36.93;97336.63;5015178;28;20113;-64
2023/06/01 11:21:48;;;;;;;7.82;3.75;;;;;;;23.57;37.27;97334.88;5016742;28;20049;-63
2023/06/01 11:24:17;;;;;;;8.98;3.35;;;;;;;23.56;36.08;97327.75;5017640;28;20045;-62
2023/06/01 11:26:47;;;;;;;6.15;3.63;;;;;;;23.83;35.83;97333.81;5021393;28;20103;-63
2023/06/01 11:29:16;;;;;;;8.75;3.88;;;;;;;24.03;35.84;97329.38;5016022;28;20091;-63
2023/06/01 11:31:46;;;;;;;5.97;3.08;;;;;;;24.16;35.44;97324.72;5019309;28;20095;-65
2023/06/01 11:34:14;;;;;;;6.55;2.97;;;;;;;24.26;34.01;97330.94;5013913;28;20052;-65
2023/06/01 11:36:44;;;;;;;6.97;3.78;;;;;;;24.21;34.92;97320.09;5019205;28;20038;-63
2023/06/01 11:39:20;;;;;;;7.00;3.75;;;;;;;24.10;35.30;97322.47;5011492;28;20483;-62
2023/06/01 11:41:49;;;;;;;6.90;3.78;;;;;;;24.11;35.14;97310.28;5014704;28;20041;-60
2023/06/01 11:44:15;;;;;;;6.85;3.35;;;;;;;24.26;35.08;97315.16;5020132;28;20441;-61
2023/06/01 11:46:53;;;;;;;9.52;3.53;;;;;;;24.64;34.26;97312.38;5005821;28;20041;-61